createdAt,value
2023-03-06T00:00:32.412Z,3.83
2023-03-06T00:02:59.240Z,4.78
2023-03-06T00:05:26.336Z,5.10
2023-03-06T00:07:53.085Z,4.53
2023-03-06T00:10:22.588Z,3.38
2023-03-06T00:12:55.546Z,5.13
2023-03-06T00:15:23.531Z,3.40
2023-03-06T00:17:50.125Z,3.88
2023-03-06T00:20:17.183Z,4.97
2023-03-06T00:22:44.137Z,3.25
2023-03-06T00:25:15.372Z,5.03
2023-03-06T00:27:42.277Z,6.22
2023-03-06T00:30:11.859Z,5.18
2023-03-06T00:32:38.596Z,4.97
2023-03-06T00:35:05.543Z,5.15
2023-03-06T00:37:32.426Z,3.83
2023-03-06T00:39:59.071Z,4.07
2023-03-06T00:42:25.715Z,3.05
2023-03-06T00:44:52.430Z,2.92
2023-03-06T00:47:18.979Z,4.78
2023-03-06T00:49:46.029Z,3.83
2023-03-06T00:52:13.264Z,5.68
2023-03-06T00:54:40.364Z,4.40
2023-03-06T00:57:07.469Z,5.85
2023-03-06T00:59:34.212Z,3.60
2023-03-06T01:02:00.769Z,6.45
2023-03-06T01:04:27.645Z,7.32
2023-03-06T01:06:54.302Z,4.18
2023-03-06T01:09:20.861Z,5.28
2023-03-06T01:11:47.603Z,5.32
2023-03-06T01:14:14.170Z,4.55
2023-03-06T01:16:40.855Z,7.70
2023-03-06T01:19:07.473Z,7.18
2023-03-06T01:21:34.017Z,7.00
2023-03-06T01:24:00.556Z,5.75
2023-03-06T01:26:27.184Z,7.38
2023-03-06T01:28:53.906Z,4.10
2023-03-06T01:31:20.428Z,4.68
2023-03-06T01:33:46.993Z,7.15
2023-03-06T01:36:13.630Z,5.53
2023-03-06T01:38:40.262Z,5.60
2023-03-06T01:41:07.221Z,6.47
2023-03-06T01:43:36.217Z,7.47
2023-03-06T01:46:23.343Z,4.03
2023-03-06T01:48:56.877Z,4.95
2023-03-06T01:51:27.225Z,5.75
2023-03-06T01:53:55.215Z,7.10
2023-03-06T01:56:22.584Z,5.07
2023-03-06T01:58:49.701Z,4.88
2023-03-06T02:01:17.566Z,4.43
2023-03-06T02:03:44.406Z,4.72
2023-03-06T02:06:11.223Z,8.10
2023-03-06T02:08:38.572Z,7.43
2023-03-06T02:11:11.092Z,7.40
2023-03-06T02:13:39.153Z,7.13
2023-03-06T02:16:07.199Z,6.60
2023-03-06T02:18:34.669Z,5.32
2023-03-06T02:21:06.229Z,6.90
2023-03-06T02:23:41.135Z,5.05
2023-03-06T02:26:09.429Z,7.38
2023-03-06T02:28:36.223Z,7.53
2023-03-06T02:31:02.849Z,5.97
2023-03-06T02:33:30.181Z,11.05
2023-03-06T02:35:59.936Z,6.32
2023-03-06T02:41:08.618Z,5.00
2023-03-06T02:43:39.726Z,8.65
2023-03-06T02:46:07.550Z,2.22
2023-03-06T02:48:34.790Z,7.60
2023-03-06T02:51:01.394Z,7.47
2023-03-06T02:53:28.028Z,11.05
2023-03-06T02:55:54.588Z,7.38
2023-03-06T02:58:21.266Z,6.30
2023-03-06T03:00:49.303Z,9.10
2023-03-06T03:03:16.152Z,5.97
2023-03-06T03:05:42.679Z,7.15
2023-03-06T03:08:09.283Z,2.55
2023-03-06T03:10:35.859Z,6.32
2023-03-06T03:13:02.694Z,4.75
2023-03-06T03:15:29.258Z,11.80
2023-03-06T03:17:55.796Z,6.93
2023-03-06T03:20:22.743Z,5.60
2023-03-06T03:22:53.884Z,9.27
2023-03-06T03:25:22.560Z,5.65
2023-03-06T03:27:49.136Z,4.22
2023-03-06T03:30:16.105Z,6.43
2023-03-06T03:32:43.175Z,7.03
2023-03-06T03:35:11.207Z,6.95
2023-03-06T03:37:38.460Z,5.30
2023-03-06T03:40:06.952Z,5.30
2023-03-06T03:42:34.007Z,9.20
2023-03-06T03:45:00.542Z,5.10
2023-03-06T03:47:27.125Z,5.68
2023-03-06T03:49:53.683Z,9.50
2023-03-06T03:52:20.241Z,10.13
2023-03-06T03:54:46.766Z,7.78
2023-03-06T03:57:13.363Z,8.18
2023-03-06T03:59:39.865Z,7.47
2023-03-06T04:02:06.428Z,10.68
2023-03-06T04:04:33.040Z,6.63
2023-03-06T04:07:00.536Z,6.78
2023-03-06T04:09:27.102Z,8.57
2023-03-06T04:11:53.593Z,9.65
2023-03-06T04:14:20.108Z,6.30
2023-03-06T04:16:46.628Z,9.15
2023-03-06T04:19:13.182Z,8.80
2023-03-06T04:21:39.809Z,8.60
2023-03-06T04:24:06.653Z,6.93
2023-03-06T04:26:33.208Z,8.02
2023-03-06T04:28:59.795Z,6.70
2023-03-06T04:31:26.339Z,5.75
2023-03-06T04:33:52.902Z,11.70
2023-03-06T04:36:31.900Z,5.95
2023-03-06T04:38:59.192Z,5.70
2023-03-06T04:41:26.214Z,5.40
2023-03-06T04:43:53.732Z,4.45
2023-03-06T04:46:20.317Z,5.82
2023-03-06T04:48:46.835Z,5.00
2023-03-06T04:51:14.322Z,4.68
2023-03-06T04:53:40.922Z,7.57
2023-03-06T04:56:07.770Z,5.38
2023-03-06T04:58:34.318Z,5.30
2023-03-06T05:01:00.973Z,9.48
2023-03-06T05:03:27.678Z,9.70
2023-03-06T05:05:54.291Z,6.05
2023-03-06T05:08:21.099Z,7.82
2023-03-06T05:10:56.039Z,10.48
2023-03-06T05:13:22.589Z,7.55
2023-03-06T05:15:49.193Z,10.15
2023-03-06T05:18:15.790Z,6.15
2023-03-06T05:20:42.767Z,9.07
2023-03-06T05:23:09.325Z,9.88
2023-03-06T05:25:38.160Z,7.45
2023-03-06T05:28:04.698Z,10.77
2023-03-06T05:30:31.275Z,3.42
2023-03-06T05:32:57.789Z,8.75
2023-03-06T05:35:24.770Z,8.45
2023-03-06T05:37:51.510Z,6.53
2023-03-06T05:40:19.204Z,9.63
2023-03-06T05:42:45.732Z,8.13
2023-03-06T05:45:12.277Z,6.32
2023-03-06T05:47:38.918Z,9.48
2023-03-06T05:50:07.982Z,9.27
2023-03-06T05:52:34.498Z,5.78
2023-03-06T05:55:01.053Z,11.55
2023-03-06T05:57:27.630Z,8.45
2023-03-06T05:59:54.263Z,9.57
2023-03-06T06:02:20.977Z,11.07
2023-03-06T06:04:47.771Z,6.57
2023-03-06T06:07:15.811Z,8.07
2023-03-06T06:09:45.378Z,10.60
2023-03-06T06:12:12.663Z,8.80
2023-03-06T06:14:39.220Z,10.45
2023-03-06T06:17:05.820Z,5.88
2023-03-06T06:19:32.760Z,11.63
2023-03-06T06:21:59.350Z,9.68
2023-03-06T06:24:26.757Z,7.13
2023-03-06T06:26:55.104Z,11.10
2023-03-06T06:29:22.075Z,10.35
2023-03-06T06:31:49.260Z,9.38
2023-03-06T06:34:16.212Z,7.93
2023-03-06T06:36:43.150Z,8.23
2023-03-06T06:39:12.934Z,8.52
2023-03-06T06:44:25.761Z,7.93
2023-03-06T06:47:22.008Z,4.68
2023-03-06T06:49:39.640Z,10.82
2023-03-06T06:52:06.901Z,7.65
2023-03-06T06:54:34.792Z,9.20
2023-03-06T06:57:01.619Z,10.32
2023-03-06T06:59:28.158Z,9.43
2023-03-06T07:01:54.662Z,5.30
2023-03-06T07:04:21.309Z,10.50
2023-03-06T07:06:48.307Z,9.43
2023-03-06T07:09:14.884Z,10.30
2023-03-06T07:11:41.667Z,8.98
2023-03-06T07:14:08.269Z,9.40
2023-03-06T07:16:34.985Z,9.13
2023-03-06T07:19:01.653Z,9.52
2023-03-06T07:21:28.281Z,9.40
2023-03-06T07:23:57.220Z,12.88
2023-03-06T07:26:24.931Z,11.07
2023-03-06T07:28:53.730Z,8.95
2023-03-06T07:31:22.417Z,12.23
2023-03-06T07:33:50.227Z,9.15
2023-03-06T07:36:17.618Z,11.48
2023-03-06T07:38:44.286Z,12.23
2023-03-06T07:41:13.597Z,13.05
2023-03-06T07:43:41.258Z,10.52
2023-03-06T07:46:08.466Z,8.80
2023-03-06T07:48:35.820Z,13.27
2023-03-06T07:51:08.590Z,11.40
2023-03-06T07:53:35.694Z,14.63
2023-03-06T07:56:08.564Z,12.13
2023-03-06T07:58:36.717Z,10.98
2023-03-06T08:01:07.598Z,13.45
2023-03-06T08:03:34.513Z,11.98
2023-03-06T08:06:15.908Z,10.32
2023-03-06T08:08:44.395Z,5.60
2023-03-06T08:11:12.410Z,12.23
2023-03-06T08:13:39.681Z,13.20
2023-03-06T08:16:06.753Z,6.40
2023-03-06T08:18:34.186Z,12.60
2023-03-06T08:21:06.302Z,12.02
2023-03-06T08:23:33.773Z,9.13
2023-03-06T08:26:06.127Z,13.40
2023-03-06T08:28:32.747Z,9.20
2023-03-06T08:31:07.283Z,15.20
2023-03-06T08:33:33.928Z,13.85
2023-03-06T08:36:02.075Z,14.60
2023-03-06T08:38:28.938Z,14.05
2023-03-06T08:40:55.522Z,9.68
2023-03-06T08:43:22.161Z,10.02
2023-03-06T08:45:55.416Z,8.13
2023-03-06T08:48:22.213Z,9.68
2023-03-06T08:50:49.241Z,10.35
2023-03-06T08:53:15.903Z,13.50
2023-03-06T08:55:42.529Z,14.07
2023-03-06T08:58:09.671Z,11.13
2023-03-06T09:00:37.492Z,11.68
2023-03-06T09:03:05.250Z,9.27
2023-03-06T09:05:32.222Z,12.52
2023-03-06T09:07:58.825Z,15.05
2023-03-06T09:10:26.165Z,13.73
2023-03-06T09:12:55.007Z,8.65
2023-03-06T09:15:24.753Z,11.95
2023-03-06T09:17:51.827Z,5.32
2023-03-06T09:20:19.145Z,12.25
2023-03-06T09:22:45.971Z,12.27
2023-03-06T09:25:13.991Z,20.42
2023-03-06T09:27:40.981Z,8.57
2023-03-06T09:30:08.713Z,12.27
2023-03-06T09:32:35.339Z,10.45
2023-03-06T09:35:01.883Z,13.80
2023-03-06T09:37:28.443Z,14.85
2023-03-06T09:39:54.969Z,15.65
2023-03-06T09:42:23.698Z,16.10
2023-03-06T09:44:56.137Z,14.55
2023-03-06T09:47:25.369Z,10.57
2023-03-06T09:50:09.830Z,16.40
2023-03-06T09:52:39.934Z,12.98
2023-03-06T09:55:12.737Z,13.02
2023-03-06T09:57:52.519Z,8.57
2023-03-06T10:00:26.537Z,11.77
2023-03-06T10:03:02.923Z,11.27
2023-03-06T10:05:39.384Z,8.40
2023-03-06T10:08:27.132Z,12.27
2023-03-06T10:11:02.504Z,14.68
2023-03-06T10:13:32.033Z,8.98
2023-03-06T10:16:25.739Z,10.27
2023-03-06T10:18:53.491Z,14.02
2023-03-06T10:21:28.812Z,10.80
2023-03-06T10:24:07.288Z,14.15
2023-03-06T10:26:48.453Z,12.35
2023-03-06T10:30:00.116Z,10.95
2023-03-06T10:32:51.352Z,13.55
2023-03-06T10:35:30.373Z,14.27
2023-03-06T10:38:13.068Z,12.07
2023-03-06T10:41:07.420Z,7.63
2023-03-06T10:46:05.063Z,13.10
2023-03-06T10:48:35.920Z,16.85
2023-03-06T10:51:24.412Z,13.00
2023-03-06T10:53:53.082Z,10.13
2023-03-06T10:56:29.973Z,18.35
2023-03-06T10:59:16.175Z,12.48
2023-03-06T11:01:51.345Z,11.07
2023-03-06T11:04:31.747Z,13.43
2023-03-06T11:07:28.509Z,12.05
2023-03-06T11:09:57.870Z,13.45
2023-03-06T11:12:38.641Z,11.95
2023-03-06T11:15:12.304Z,9.63
2023-03-06T11:17:50.190Z,12.30
2023-03-06T11:20:25.301Z,13.88
2023-03-06T11:23:02.173Z,12.70
2023-03-06T11:25:40.407Z,15.32
2023-03-06T11:28:23.794Z,13.40
2023-03-06T11:30:56.552Z,12.25
2023-03-06T11:33:30.876Z,11.15
2023-03-06T11:36:11.456Z,16.95
2023-03-06T11:38:51.959Z,19.60
2023-03-06T11:41:39.445Z,15.48
2023-03-06T11:44:27.244Z,11.68
2023-03-06T11:47:18.953Z,12.98
2023-03-06T11:50:24.144Z,13.45
2023-03-06T11:53:05.061Z,12.95
2023-03-06T11:56:02.083Z,12.77
2023-03-06T11:58:56.261Z,11.27
2023-03-06T12:01:47.485Z,14.55
2023-03-06T12:04:54.173Z,12.23
2023-03-06T12:07:33.790Z,17.20
2023-03-06T12:10:32.723Z,13.13
2023-03-06T12:13:11.264Z,15.93
2023-03-06T12:16:15.234Z,15.10
2023-03-06T12:18:53.175Z,17.63
2023-03-06T12:21:28.534Z,17.80
2023-03-06T12:24:16.779Z,17.90
2023-03-06T12:26:49.279Z,19.58
2023-03-06T12:29:25.724Z,20.02
2023-03-06T12:32:14.876Z,18.63
2023-03-06T12:35:06.454Z,11.43
2023-03-06T12:37:42.530Z,13.32
2023-03-06T12:40:21.337Z,13.05
2023-03-06T12:43:18.625Z,11.85
2023-03-06T12:45:46.209Z,15.50
2023-03-06T12:48:22.520Z,13.80
2023-03-06T12:50:50.148Z,13.63
2023-03-06T12:53:29.756Z,14.15
2023-03-06T12:55:58.424Z,14.77
2023-03-06T12:58:30.862Z,17.40
2023-03-06T13:01:04.178Z,11.70
2023-03-06T13:03:55.879Z,13.63
2023-03-06T13:06:34.200Z,13.52
2023-03-06T13:09:08.833Z,16.75
2023-03-06T13:11:44.493Z,14.82
2023-03-06T13:14:25.013Z,16.48
2023-03-06T13:16:51.860Z,20.98
2023-03-06T13:19:22.039Z,17.38
2023-03-06T13:21:54.647Z,15.45
2023-03-06T13:24:25.078Z,17.88
2023-03-06T13:27:09.504Z,18.67
2023-03-06T13:29:35.984Z,15.07
2023-03-06T13:32:02.520Z,16.40
2023-03-06T13:34:31.864Z,22.85
2023-03-06T13:37:13.774Z,15.50
2023-03-06T13:40:10.063Z,18.10
2023-03-06T13:42:57.626Z,18.88
2023-03-06T13:45:52.863Z,16.90
2023-03-06T13:48:44.886Z,18.05
2023-03-06T13:51:24.623Z,19.63
2023-03-06T13:54:15.683Z,16.38
2023-03-06T13:56:57.438Z,12.02
2023-03-06T13:59:29.959Z,16.85
2023-03-06T14:02:26.833Z,15.10
2023-03-06T14:04:58.663Z,14.73
2023-03-06T14:07:32.277Z,16.77
2023-03-06T14:10:14.938Z,14.48
2023-03-06T14:13:06.657Z,11.35
2023-03-06T14:15:44.570Z,15.43
2023-03-06T14:18:33.781Z,15.73
2023-03-06T14:21:05.532Z,16.50
2023-03-06T14:23:35.320Z,16.33
2023-03-06T14:26:20.174Z,17.13
2023-03-06T14:28:56.834Z,14.35
2023-03-06T14:31:26.793Z,14.90
2023-03-06T14:33:54.742Z,16.80
2023-03-06T14:36:24.573Z,10.80
2023-03-06T14:38:58.168Z,14.10
2023-03-06T14:41:26.295Z,19.77
2023-03-06T14:43:53.218Z,10.80
2023-03-06T14:46:22.352Z,13.65
2023-03-06T14:48:49.502Z,13.35
2023-03-06T14:51:28.243Z,13.45
2023-03-06T14:54:02.010Z,9.88
2023-03-06T14:56:30.075Z,7.15
2023-03-06T14:59:03.238Z,10.48
2023-03-06T15:01:45.773Z,10.05
2023-03-06T15:04:15.288Z,10.60
2023-03-06T15:06:44.212Z,11.93
2023-03-06T15:09:24.203Z,9.38
2023-03-06T15:12:02.866Z,8.85
2023-03-06T15:14:36.479Z,8.70
2023-03-06T15:17:42.747Z,9.23
2023-03-06T15:20:51.950Z,6.57
2023-03-06T15:23:23.096Z,8.20
2023-03-06T15:25:58.373Z,9.52
2023-03-06T15:28:33.207Z,10.80
2023-03-06T15:31:20.807Z,9.70
2023-03-06T15:34:07.879Z,12.30
2023-03-06T15:36:36.769Z,10.35
2023-03-06T15:39:35.352Z,13.45
2023-03-06T15:42:23.597Z,8.70
2023-03-06T15:44:55.513Z,9.40
2023-03-06T15:47:23.176Z,9.30
2023-03-06T15:49:52.579Z,7.65
2023-03-06T15:52:22.713Z,8.55
2023-03-06T15:54:49.784Z,12.13
2023-03-06T15:57:23.859Z,7.57
2023-03-06T15:59:51.225Z,10.05
2023-03-06T16:02:20.334Z,11.48
2023-03-06T16:04:47.534Z,12.73
2023-03-06T16:07:14.847Z,13.90
2023-03-06T16:09:42.303Z,11.55
2023-03-06T16:12:17.493Z,16.98
2023-03-06T16:14:45.345Z,11.35
2023-03-06T16:17:12.499Z,14.73
2023-03-06T16:19:39.539Z,10.80
2023-03-06T16:22:06.256Z,13.68
2023-03-06T16:24:33.050Z,5.25
2023-03-06T16:27:01.512Z,9.13
2023-03-06T16:29:29.407Z,8.45
2023-03-06T16:31:58.752Z,8.55
2023-03-06T16:34:25.657Z,11.30
2023-03-06T16:36:52.594Z,7.93
2023-03-06T16:39:22.095Z,12.25
2023-03-06T16:41:51.856Z,12.95
2023-03-06T16:46:47.955Z,10.60
2023-03-06T16:49:20.606Z,9.73
2023-03-06T16:51:47.519Z,6.50
2023-03-06T16:54:14.037Z,13.10
2023-03-06T16:56:40.760Z,5.40
2023-03-06T16:59:07.349Z,11.82
2023-03-06T17:01:34.122Z,8.77
2023-03-06T17:04:00.900Z,8.75
2023-03-06T17:06:27.582Z,10.63
2023-03-06T17:08:54.373Z,8.40
2023-03-06T17:11:20.910Z,11.82
2023-03-06T17:13:48.237Z,9.95
2023-03-06T17:16:18.472Z,11.70
2023-03-06T17:18:45.725Z,6.45
2023-03-06T17:21:15.621Z,10.93
2023-03-06T17:23:42.863Z,9.77
2023-03-06T17:26:15.315Z,10.32
2023-03-06T17:28:42.368Z,12.93
2023-03-06T17:31:17.286Z,11.13
2023-03-06T17:33:44.450Z,8.65
2023-03-06T17:36:11.953Z,11.32
2023-03-06T17:38:38.539Z,9.48
2023-03-06T17:41:07.504Z,10.75
2023-03-06T17:43:34.095Z,13.05
2023-03-06T17:46:05.595Z,13.60
2023-03-06T17:48:32.344Z,12.25
2023-03-06T17:50:59.243Z,11.90
2023-03-06T17:53:26.932Z,13.70
2023-03-06T17:55:53.985Z,14.20
2023-03-06T17:58:20.544Z,13.30
2023-03-06T18:00:47.108Z,11.20
2023-03-06T18:03:13.644Z,11.77
2023-03-06T18:05:40.201Z,11.85
2023-03-06T18:08:08.316Z,12.88
2023-03-06T18:10:34.878Z,10.77
2023-03-06T18:13:01.401Z,10.50
2023-03-06T18:15:27.990Z,12.52
2023-03-06T18:17:56.647Z,12.15
2023-03-06T18:20:23.186Z,10.35
2023-03-06T18:22:49.704Z,9.23
2023-03-06T18:25:17.437Z,12.55
2023-03-06T18:27:43.994Z,13.60
2023-03-06T18:30:11.270Z,10.68
2023-03-06T18:32:37.897Z,11.27
2023-03-06T18:35:04.786Z,11.63
2023-03-06T18:37:31.369Z,6.47
2023-03-06T18:39:58.006Z,12.45
2023-03-06T18:42:24.733Z,9.52
2023-03-06T18:44:51.266Z,11.15
2023-03-06T18:47:17.845Z,10.85
2023-03-06T18:49:45.951Z,13.50
2023-03-06T18:52:12.942Z,9.30
2023-03-06T18:54:39.632Z,13.23
2023-03-06T18:57:06.239Z,13.20
2023-03-06T18:59:33.019Z,12.57
2023-03-06T19:01:59.649Z,12.48
2023-03-06T19:04:27.127Z,12.13
2023-03-06T19:06:54.853Z,9.48
2023-03-06T19:09:22.195Z,16.17
2023-03-06T19:11:49.223Z,12.75
2023-03-06T19:14:15.887Z,7.47
2023-03-06T19:16:42.626Z,14.95
2023-03-06T19:19:09.485Z,13.57
2023-03-06T19:21:36.035Z,15.93
2023-03-06T19:24:02.711Z,13.50
2023-03-06T19:26:29.458Z,11.55
2023-03-06T19:28:56.077Z,13.35
2023-03-06T19:31:25.712Z,15.93
2023-03-06T19:36:23.595Z,14.32
2023-03-06T19:38:54.419Z,12.43
2023-03-06T19:41:20.983Z,9.93
2023-03-06T19:43:52.333Z,13.80
2023-03-06T19:46:20.250Z,11.68
2023-03-06T19:48:47.847Z,13.13
2023-03-06T19:51:14.755Z,13.80
2023-03-06T19:53:42.025Z,14.70
2023-03-06T19:56:12.224Z,14.68
2023-03-06T19:58:40.630Z,11.63
2023-03-06T20:01:10.070Z,16.42
2023-03-06T20:03:36.879Z,15.68
2023-03-06T20:06:06.611Z,15.10
2023-03-06T20:08:33.330Z,13.05
2023-03-06T20:10:59.893Z,12.80
2023-03-06T20:13:26.466Z,14.38
2023-03-06T20:15:53.191Z,15.30
2023-03-06T20:18:19.804Z,12.65
2023-03-06T20:20:57.199Z,14.10
2023-03-06T20:23:23.731Z,14.07
2023-03-06T20:25:50.295Z,14.27
2023-03-06T20:28:16.789Z,15.45
2023-03-06T20:30:43.327Z,16.00
2023-03-06T20:33:10.674Z,12.35
2023-03-06T20:35:42.376Z,13.80
2023-03-06T20:38:09.552Z,16.13
2023-03-06T20:40:40.446Z,14.60
2023-03-06T20:43:07.674Z,15.93
2023-03-06T20:45:34.932Z,17.20
2023-03-06T20:48:01.658Z,16.80
2023-03-06T20:50:28.242Z,16.02
2023-03-06T20:52:56.652Z,16.45
2023-03-06T20:55:23.215Z,15.88
2023-03-06T20:57:50.954Z,8.38
2023-03-06T21:00:18.877Z,18.40
2023-03-06T21:02:45.426Z,16.83
2023-03-06T21:05:12.040Z,15.80
2023-03-06T21:07:39.662Z,15.43
2023-03-06T21:10:06.915Z,17.42
2023-03-06T21:12:33.448Z,16.88
2023-03-06T21:15:00.029Z,18.38
2023-03-06T21:17:27.556Z,7.43
2023-03-06T21:19:54.092Z,14.45
2023-03-06T21:22:20.636Z,9.23
2023-03-06T21:24:47.179Z,17.15
2023-03-06T21:27:13.793Z,15.23
2023-03-06T21:29:40.356Z,15.07
2023-03-06T21:32:06.913Z,17.23
2023-03-06T21:34:33.442Z,15.32
2023-03-06T21:36:59.927Z,16.00
2023-03-06T21:39:26.453Z,17.95
2023-03-06T21:41:52.954Z,19.70
2023-03-06T21:44:19.738Z,14.68
2023-03-06T21:46:46.229Z,20.20
2023-03-06T21:49:12.790Z,17.60
2023-03-06T21:51:39.452Z,13.85
2023-03-06T21:54:06.518Z,12.02
2023-03-06T21:56:33.581Z,16.35
2023-03-06T21:59:00.279Z,16.27
2023-03-06T22:01:28.863Z,12.40
2023-03-06T22:03:57.399Z,14.45
2023-03-06T22:06:26.598Z,9.43
2023-03-06T22:08:55.872Z,15.15
2023-03-06T22:11:23.575Z,17.58
2023-03-06T22:13:50.282Z,17.73
2023-03-06T22:16:17.738Z,12.52
2023-03-06T22:18:46.139Z,10.98
2023-03-06T22:21:15.102Z,10.65
2023-03-06T22:23:42.050Z,13.18
2023-03-06T22:26:14.297Z,8.95
2023-03-06T22:28:42.055Z,18.10
2023-03-06T22:31:17.630Z,20.15
2023-03-06T22:33:44.626Z,16.83
2023-03-06T22:36:14.531Z,21.83
2023-03-06T22:38:43.501Z,6.25
2023-03-06T22:41:11.514Z,9.02
2023-03-06T22:43:38.105Z,20.50
2023-03-06T22:46:07.770Z,10.23
2023-03-06T22:48:34.826Z,9.45
2023-03-06T22:51:12.455Z,10.13
2023-03-06T22:53:41.028Z,10.68
2023-03-06T22:56:10.103Z,12.82
2023-03-06T22:58:37.505Z,9.32
2023-03-06T23:01:09.885Z,19.55
2023-03-06T23:03:38.134Z,6.43
2023-03-06T23:06:25.860Z,11.68
2023-03-06T23:08:58.473Z,14.98
2023-03-06T23:11:27.889Z,17.48
2023-03-06T23:13:56.558Z,17.08
2023-03-06T23:16:23.838Z,8.00
2023-03-06T23:18:52.412Z,10.55
2023-03-06T23:21:21.542Z,14.75
2023-03-06T23:23:49.852Z,13.38
2023-03-06T23:26:17.978Z,17.15
2023-03-06T23:28:44.814Z,14.95
2023-03-06T23:31:16.840Z,13.10
2023-03-06T23:33:43.563Z,15.82
2023-03-06T23:36:12.878Z,10.57
2023-03-06T23:38:40.478Z,12.07
2023-03-06T23:41:10.386Z,17.27
2023-03-06T23:43:37.175Z,20.40
2023-03-06T23:46:04.413Z,16.63
2023-03-06T23:48:31.818Z,16.92
2023-03-06T23:50:58.626Z,16.17
2023-03-06T23:53:25.543Z,13.85
2023-03-06T23:55:52.397Z,15.00
2023-03-06T23:58:19.657Z,7.75
